Time;durP1;ratioP1;P1;durP2;ratioP2;P2;SDS_P1;SDS_P2;PMS_P1;PMS_P2;Temp;Humidity;BMP_temperature;BMP_pressure;BME280_temperature;BME280_humidity;BME280_pressure;Samples;Min_cycle;Max_cycle;Signal;HPM_P1;HPM_P2
2022/07/23 00:01:23;;;;;;;2.83;0.85;;;17.60;84.70;;;;;;5075255;28;20044;-82
2022/07/23 00:03:49;;;;;;;2.72;1.20;;;17.50;84.80;;;;;;5073942;28;20055;-82
2022/07/23 00:06:15;;;;;;;2.83;0.93;;;17.50;85.00;;;;;;5075006;28;20032;-83
2022/07/23 00:08:41;;;;;;;4.43;1.00;;;17.40;85.10;;;;;;5057302;28;20033;-82
2022/07/23 00:11:07;;;;;;;3.05;1.00;;;17.40;85.30;;;;;;5056982;28;20047;-83
2022/07/23 00:13:32;;;;;;;3.58;1.15;;;17.30;85.50;;;;;;5074897;28;20396;-83
2022/07/23 00:15:58;;;;;;;3.22;1.20;;;17.30;85.60;;;;;;5074839;28;20040;-83
2022/07/23 00:18:24;;;;;;;4.35;1.00;;;17.20;85.80;;;;;;5056897;28;20040;-82
2022/07/23 00:20:49;;;;;;;6.93;1.15;;;17.20;86.00;;;;;;5074833;28;20111;-83
2022/07/23 00:23:15;;;;;;;5.25;1.00;;;17.20;86.20;;;;;;5074773;28;20457;-83
2022/07/23 00:25:41;;;;;;;3.08;1.05;;;17.10;86.50;;;;;;5074742;28;20112;-83
2022/07/23 00:28:06;;;;;;;3.60;1.33;;;17.10;86.80;;;;;;5056748;28;20028;-83
2022/07/23 00:30:33;;;;;;;4.07;1.25;;;17.10;87.00;;;;;;5074636;28;20029;-83
2022/07/23 00:33:02;;;;;;;5.05;1.17;;;17.10;87.20;;;;;;5074493;28;20016;-82
2022/07/23 00:35:30;;;;;;;6.78;1.40;;;17.00;87.40;;;;;;5074809;28;20032;-83
2022/07/23 00:37:57;;;;;;;2.92;1.30;;;17.00;87.60;;;;;;5074399;28;20074;-83
2022/07/23 00:40:23;;;;;;;2.72;1.15;;;16.90;87.70;;;;;;5074408;28;20538;-83
2022/07/23 00:42:48;;;;;;;3.50;1.58;;;16.90;87.90;;;;;;5074298;28;20025;-82
2022/07/23 00:45:14;;;;;;;4.53;1.40;;;16.90;88.00;;;;;;5074641;28;20025;-83
2022/07/23 00:47:40;;;;;;;5.60;1.70;;;16.90;88.10;;;;;;5058053;28;20031;-82
2022/07/23 00:50:08;;;;;;;3.13;1.17;;;16.90;88.30;;;;;;5074510;28;20028;-83
2022/07/23 00:52:35;;;;;;;3.42;1.55;;;16.80;88.40;;;;;;5075071;28;20036;-83
2022/07/23 00:55:02;;;;;;;4.18;1.50;;;16.80;89.40;;;;;;5075217;28;20423;-83
2022/07/23 00:57:28;;;;;;;2.60;1.27;;;16.80;88.80;;;;;;5051550;28;20143;-82
2022/07/23 00:59:54;;;;;;;4.85;1.52;;;16.80;88.90;;;;;;5053628;28;20129;-81
2022/07/23 01:02:19;;;;;;;3.90;1.42;;;16.80;89.10;;;;;;5070148;28;20027;-80
2022/07/23 01:04:45;;;;;;;4.38;1.20;;;16.70;89.20;;;;;;5070333;28;20057;-82
2022/07/23 01:07:11;;;;;;;4.43;1.38;;;16.70;89.40;;;;;;5054238;28;20021;-82
2022/07/23 01:09:37;;;;;;;4.97;1.77;;;16.70;89.60;;;;;;5054938;28;20477;-82
2022/07/23 01:12:04;;;;;;;5.90;1.27;;;16.70;89.70;;;;;;5054699;28;20043;-82
2022/07/23 01:14:29;;;;;;;2.70;1.30;;;16.70;89.90;;;;;;5070004;28;20107;-82
2022/07/23 01:16:55;;;;;;;8.45;1.63;;;16.60;90.00;;;;;;5053925;28;20056;-81
2022/07/23 01:19:21;;;;;;;3.55;1.55;;;16.60;90.00;;;;;;5054129;28;20036;-81
2022/07/23 01:21:49;;;;;;;6.32;1.70;;;16.60;90.20;;;;;;5054449;28;20052;-81
2022/07/23 01:24:16;;;;;;;3.10;1.50;;;16.50;90.20;;;;;;5054024;28;20025;-81
2022/07/23 01:26:44;;;;;;;6.68;2.00;;;16.50;90.30;;;;;;5055609;28;20024;-81
2022/07/23 01:29:10;;;;;;;3.30;1.70;;;16.50;90.40;;;;;;5055056;28;20028;-81
2022/07/23 01:31:36;;;;;;;5.45;1.65;;;16.50;90.40;;;;;;5069362;28;20048;-82
2022/07/23 01:34:02;;;;;;;4.22;1.88;;;16.50;90.50;;;;;;5052404;28;20481;-82
2022/07/23 01:36:28;;;;;;;5.47;2.05;;;16.40;90.50;;;;;;5053891;28;20025;-82
2022/07/23 01:38:54;;;;;;;6.20;2.03;;;16.40;90.60;;;;;;5053507;28;20059;-83
2022/07/23 01:41:20;;;;;;;4.35;1.70;;;16.40;90.80;;;;;;5052320;28;20017;-83
2022/07/23 01:43:45;;;;;;;5.05;2.05;;;16.30;90.80;;;;;;5053516;28;20079;-83
2022/07/23 01:46:12;;;;;;;3.78;1.65;;;16.30;90.90;;;;;;5053326;28;20036;-82
2022/07/23 01:48:37;;;;;;;3.50;1.80;;;16.30;90.90;;;;;;5053236;28;20079;-82
2022/07/23 01:51:03;;;;;;;3.85;1.75;;;16.30;91.00;;;;;;5052451;28;20032;-82
2022/07/23 01:53:31;;;;;;;3.03;1.65;;;16.20;91.10;;;;;;5052072;28;20033;-82
2022/07/23 01:55:57;;;;;;;3.67;1.40;;;16.20;91.10;;;;;;5051952;28;20110;-82
2022/07/23 01:58:23;;;;;;;4.60;1.67;;;16.20;91.20;;;;;;5052182;28;20040;-82
2022/07/23 02:00:48;;;;;;;4.13;1.67;;;16.10;91.30;;;;;;5054421;28;20078;-82
2022/07/23 02:03:14;;;;;;;7.57;1.92;;;16.10;91.30;;;;;;5059778;28;20388;-82
2022/07/23 02:05:40;;;;;;;4.10;1.77;;;16.10;91.40;;;;;;5058571;28;20032;-82
2022/07/23 02:08:05;;;;;;;4.78;1.77;;;16.00;91.40;;;;;;5059654;28;20035;-81
2022/07/23 02:10:31;;;;;;;4.57;1.60;;;16.10;91.50;;;;;;5060079;28;20049;-81
2022/07/23 02:12:56;;;;;;;4.68;1.73;;;16.00;91.50;;;;;;5059843;28;20021;-82
2022/07/23 02:15:22;;;;;;;5.90;2.38;;;16.00;91.60;;;;;;5058693;28;20104;-82
2022/07/23 02:17:48;;;;;;;5.10;1.80;;;16.00;91.70;;;;;;5058839;28;20029;-82
2022/07/23 02:20:14;;;;;;;4.53;1.67;;;15.90;91.70;;;;;;5059777;28;20035;-81
2022/07/23 02:22:39;;;;;;;4.32;1.50;;;15.90;91.80;;;;;;5059910;28;20381;-82
2022/07/23 02:25:06;;;;;;;3.00;1.52;;;15.90;91.90;;;;;;5075203;28;20021;-82
2022/07/23 02:27:33;;;;;;;5.05;1.48;;;15.90;92.00;;;;;;5059817;28;20029;-81
2022/07/23 02:29:59;;;;;;;5.10;1.70;;;15.80;92.10;;;;;;5059617;28;20074;-82
2022/07/23 02:32:24;;;;;;;6.50;2.30;;;15.80;92.10;;;;;;5059685;28;20029;-81
2022/07/23 02:34:51;;;;;;;6.28;1.92;;;15.80;92.20;;;;;;5059586;28;20500;-81
2022/07/23 02:37:17;;;;;;;4.88;1.88;;;15.80;92.40;;;;;;5059564;28;20025;-81
2022/07/23 02:39:43;;;;;;;5.28;1.88;;;15.80;92.50;;;;;;5059380;28;20052;-82
2022/07/23 02:42:08;;;;;;;3.38;1.40;;;15.80;92.50;;;;;;5059740;28;20028;-82
2022/07/23 02:44:34;;;;;;;3.72;1.88;;;15.80;92.70;;;;;;5059575;28;20021;-82
2022/07/23 02:47:00;;;;;;;4.32;1.65;;;15.80;92.70;;;;;;5074928;28;20025;-82
2022/07/23 02:49:25;;;;;;;9.10;2.22;;;15.80;92.80;;;;;;5059413;28;20040;-82
2022/07/23 02:51:51;;;;;;;3.03;1.60;;;15.80;92.80;;;;;;5060027;28;20481;-82
2022/07/23 02:54:17;;;;;;;2.83;1.20;;;15.80;92.90;;;;;;5075002;28;20029;-83
2022/07/23 02:56:42;;;;;;;5.47;1.88;;;15.80;93.00;;;;;;5070908;28;20044;-82
2022/07/23 02:59:08;;;;;;;4.45;1.80;;;15.80;93.00;;;;;;5079373;28;20115;-82
2022/07/23 03:01:34;;;;;;;3.30;1.40;;;15.70;93.10;;;;;;5079464;28;20021;-82
2022/07/23 03:04:00;;;;;;;4.68;1.70;;;15.70;93.10;;;;;;5061553;28;20020;-82
2022/07/23 03:06:25;;;;;;;5.00;2.15;;;15.70;93.20;;;;;;5079727;28;20414;-82
2022/07/23 03:08:51;;;;;;;3.10;1.48;;;15.70;93.20;;;;;;5061602;28;20028;-82
2022/07/23 03:11:17;;;;;;;4.75;1.50;;;15.70;93.20;;;;;;5061801;28;20032;-83
2022/07/23 03:13:43;;;;;;;3.47;1.50;;;15.70;93.30;;;;;;5075849;28;20036;-81
2022/07/23 03:16:09;;;;;;;4.60;1.60;;;15.60;93.30;;;;;;5057967;28;20024;-82
2022/07/23 03:18:35;;;;;;;2.08;1.20;;;15.60;93.30;;;;;;5076040;28;20094;-82
2022/07/23 03:21:00;;;;;;;4.72;1.60;;;15.60;93.40;;;;;;5076066;28;20414;-82
2022/07/23 03:23:26;;;;;;;3.65;1.27;;;15.60;93.40;;;;;;5076141;28;20031;-82
2022/07/23 03:25:52;;;;;;;3.15;1.45;;;15.60;93.50;;;;;;5075925;28;20025;-82
2022/07/23 03:28:18;;;;;;;3.33;1.60;;;15.60;93.50;;;;;;5075832;28;20052;-83
2022/07/23 03:30:48;;;;;;;5.15;1.63;;;15.60;93.50;;;;;;5075780;28;20365;-83
2022/07/23 03:33:16;;;;;;;5.07;1.75;;;15.50;93.50;;;;;;5075699;28;20107;-83
2022/07/23 03:35:42;;;;;;;5.47;1.52;;;15.50;93.50;;;;;;5075755;28;20074;-83
2022/07/23 03:38:08;;;;;;;2.92;1.42;;;15.50;93.60;;;;;;5075572;28;20419;-83
2022/07/23 03:40:33;;;;;;;5.70;1.52;;;15.50;93.60;;;;;;5057845;28;20024;-83
2022/07/23 03:42:59;;;;;;;6.22;2.08;;;15.40;93.60;;;;;;5075562;28;20035;-83
2022/07/23 03:45:25;;;;;;;2.72;1.42;;;15.40;93.70;;;;;;5057627;28;20029;-82
2022/07/23 03:47:50;;;;;;;7.18;1.40;;;15.40;93.70;;;;;;5075544;28;20376;-83
2022/07/23 03:50:16;;;;;;;4.28;1.60;;;15.30;93.70;;;;;;5057411;28;20116;-83
2022/07/23 03:52:41;;;;;;;3.55;1.15;;;15.30;93.80;;;;;;5035807;28;20033;-82
2022/07/23 03:55:07;;;;;;;2.20;1.20;;;15.30;93.80;;;;;;5072647;28;20446;-82
2022/07/23 03:57:33;;;;;;;6.18;1.80;;;15.20;93.90;;;;;;5075387;28;20060;-82
2022/07/23 03:59:59;;;;;;;6.40;1.75;;;15.20;93.90;;;;;;5075183;28;20388;-82
2022/07/23 04:02:24;;;;;;;4.07;1.55;;;15.10;94.00;;;;;;5075513;28;20024;-83
2022/07/23 04:04:51;;;;;;;3.25;1.40;;;15.10;94.10;;;;;;5071336;28;20074;-82
2022/07/23 04:07:17;;;;;;;4.53;1.40;;;15.10;94.20;;;;;;5075178;28;20023;-82
2022/07/23 04:09:43;;;;;;;5.07;1.60;;;15.10;94.30;;;;;;5060704;28;20055;-82
2022/07/23 04:12:09;;;;;;;5.22;1.05;;;15.10;94.30;;;;;;5069268;28;20112;-82
2022/07/23 04:14:35;;;;;;;4.10;1.52;;;15.10;94.40;;;;;;5064465;28;20515;-82
2022/07/23 04:17:01;;;;;;;5.13;1.02;;;15.10;94.40;;;;;;5074756;28;20025;-83
2022/07/23 04:19:27;;;;;;;3.05;1.20;;;15.10;94.50;;;;;;5057066;28;20431;-82
2022/07/23 04:21:53;;;;;;;3.67;1.35;;;15.10;94.50;;;;;;5056904;28;20054;-82
2022/07/23 04:24:18;;;;;;;4.78;1.02;;;15.10;94.60;;;;;;5067312;28;20020;-82
2022/07/23 04:26:45;;;;;;;2.92;1.45;;;15.10;94.60;;;;;;5056715;28;20154;-81
2022/07/23 04:29:11;;;;;;;2.30;1.23;;;15.10;94.60;;;;;;5074502;28;20024;-81
2022/07/23 04:31:36;;;;;;;4.15;1.33;;;15.10;94.70;;;;;;5056829;28;20032;-82
2022/07/23 04:34:02;;;;;;;3.60;1.23;;;15.10;94.70;;;;;;5057010;28;20110;-82
2022/07/23 04:36:28;;;;;;;4.50;1.38;;;15.10;94.80;;;;;;5074587;28;20033;-82
2022/07/23 04:38:54;;;;;;;4.63;1.40;;;15.10;94.90;;;;;;5074272;28;20389;-82
2022/07/23 04:41:19;;;;;;;5.13;1.00;;;15.10;94.90;;;;;;5073070;28;20021;-82
2022/07/23 04:43:46;;;;;;;2.72;1.27;;;15.10;95.00;;;;;;5074723;28;20533;-83
2022/07/23 04:46:12;;;;;;;2.88;1.00;;;15.10;95.10;;;;;;5073001;28;20537;-82
2022/07/23 04:48:37;;;;;;;6.32;1.45;;;15.20;95.20;;;;;;5056592;28;20025;-83
2022/07/23 04:51:03;;;;;;;4.35;1.45;;;15.10;95.20;;;;;;5074233;28;20028;-82
2022/07/23 04:53:29;;;;;;;6.05;1.48;;;15.20;95.30;;;;;;5072894;28;20074;-83
2022/07/23 04:55:55;;;;;;;4.65;1.50;;;15.20;95.40;;;;;;5072698;28;20101;-82
2022/07/23 04:58:21;;;;;;;4.88;1.42;;;15.20;95.40;;;;;;5074003;28;20035;-82
2022/07/23 05:00:46;;;;;;;5.70;1.10;;;15.20;95.70;;;;;;5074956;28;20371;-81
2022/07/23 05:03:12;;;;;;;7.43;1.60;;;15.30;95.60;;;;;;5056767;28;20077;-82
2022/07/23 05:05:38;;;;;;;2.80;1.05;;;15.30;95.60;;;;;;5074607;28;20385;-82
2022/07/23 05:08:04;;;;;;;4.60;1.48;;;15.30;95.70;;;;;;5074443;28;20016;-83
2022/07/23 05:10:30;;;;;;;2.10;1.08;;;15.30;95.70;;;;;;5056233;28;20451;-83
2022/07/23 05:12:55;;;;;;;2.78;1.30;;;15.30;95.70;;;;;;5076497;28;20029;-81
2022/07/23 05:15:21;;;;;;;5.70;1.40;;;15.40;95.80;;;;;;5060896;28;20554;-81
2022/07/23 05:17:46;;;;;;;6.93;1.00;;;15.50;95.80;;;;;;5075534;28;20029;-82
2022/07/23 05:20:13;;;;;;;2.83;1.30;;;15.50;95.90;;;;;;5058489;28;20507;-82
2022/07/23 05:22:39;;;;;;;5.57;1.00;;;15.50;95.90;;;;;;5074303;28;20020;-82
2022/07/23 05:25:05;;;;;;;6.55;1.00;;;15.60;95.90;;;;;;5073577;28;20024;-82
2022/07/23 05:27:31;;;;;;;3.15;1.00;;;15.60;95.90;;;;;;5073652;28;20031;-82
2022/07/23 05:29:57;;;;;;;6.40;1.40;;;15.60;95.90;;;;;;5072269;28;20029;-82
2022/07/23 05:32:23;;;;;;;3.22;1.25;;;15.70;95.90;;;;;;5073455;28;20099;-82
2022/07/23 05:34:48;;;;;;;5.13;1.15;;;15.70;95.80;;;;;;5056030;28;20033;-82
2022/07/23 05:37:14;;;;;;;6.88;1.00;;;15.80;95.80;;;;;;5073405;28;20039;-82
2022/07/23 05:39:39;;;;;;;6.85;1.33;;;15.70;95.80;;;;;;5073385;28;20028;-82
2022/07/23 05:42:05;;;;;;;4.88;1.13;;;15.80;95.80;;;;;;5073569;28;20032;-82
2022/07/23 05:44:31;;;;;;;3.97;1.33;;;15.90;95.80;;;;;;5073573;28;20029;-82
2022/07/23 05:46:56;;;;;;;3.72;1.15;;;15.90;95.80;;;;;;5074101;28;20028;-82
2022/07/23 05:49:22;;;;;;;3.25;0.80;;;15.90;95.80;;;;;;5072206;28;20036;-82
2022/07/23 05:51:48;;;;;;;3.67;1.00;;;16.00;95.80;;;;;;5073440;28;20114;-81
2022/07/23 05:54:13;;;;;;;3.35;1.20;;;16.00;95.80;;;;;;5073616;28;20032;-82
2022/07/23 05:56:39;;;;;;;4.03;1.13;;;16.10;95.80;;;;;;5071808;28;20054;-81
2022/07/23 05:59:05;;;;;;;2.95;1.00;;;16.10;95.80;;;;;;5072929;28;20040;-81
2022/07/23 06:01:31;;;;;;;4.38;1.02;;;16.10;95.80;;;;;;5070105;28;20033;-82
2022/07/23 06:03:57;;;;;;;2.65;0.77;;;16.20;95.80;;;;;;5053389;28;20041;-81
2022/07/23 06:06:23;;;;;;;3.72;0.63;;;16.20;95.80;;;;;;5073026;28;20382;-82
2022/07/23 06:08:48;;;;;;;2.45;0.70;;;16.20;95.70;;;;;;5054873;28;20469;-82
2022/07/23 06:11:14;;;;;;;6.18;0.90;;;16.30;95.70;;;;;;5073121;28;20039;-82
2022/07/23 06:13:39;;;;;;;4.95;0.80;;;16.30;95.70;;;;;;5055118;28;20374;-82
2022/07/23 06:16:05;;;;;;;2.00;0.80;;;16.30;95.60;;;;;;5073033;28;20357;-82
2022/07/23 06:18:31;;;;;;;3.13;0.90;;;16.40;95.60;;;;;;5072991;28;20028;-82
2022/07/23 06:20:56;;;;;;;2.88;0.55;;;16.50;95.50;;;;;;5073040;28;20491;-82
2022/07/23 06:23:22;;;;;;;2.15;0.80;;;16.50;95.40;;;;;;5072692;28;20033;-82
2022/07/23 06:25:47;;;;;;;3.90;1.05;;;16.60;95.30;;;;;;5054846;28;20431;-82
2022/07/23 06:28:13;;;;;;;1.30;0.60;;;16.60;95.20;;;;;;5071572;28;20032;-83
2022/07/23 06:30:39;;;;;;;3.38;0.85;;;16.60;95.10;;;;;;5072816;28;20103;-80
2022/07/23 06:33:04;;;;;;;3.63;1.10;;;16.70;95.10;;;;;;5072800;28;20057;-81
2022/07/23 06:35:30;;;;;;;2.58;0.80;;;16.70;95.00;;;;;;5055034;28;20033;-82
2022/07/23 06:37:56;;;;;;;7.10;1.00;;;16.80;94.90;;;;;;5072719;28;20025;-81
2022/07/23 06:40:21;;;;;;;7.85;1.40;;;16.80;94.80;;;;;;5054705;28;20039;-81
2022/07/23 06:42:47;;;;;;;4.75;1.10;;;16.80;94.60;;;;;;5072757;28;20033;-81
2022/07/23 06:45:12;;;;;;;5.00;0.95;;;16.90;94.50;;;;;;5054794;28;20067;-82
2022/07/23 06:47:39;;;;;;;3.05;1.10;;;16.90;94.20;;;;;;5055666;28;20054;-81
2022/07/23 06:50:05;;;;;;;5.00;1.42;;;17.00;94.10;;;;;;5058568;28;20451;-81
2022/07/23 06:52:31;;;;;;;2.22;1.10;;;17.00;94.00;;;;;;5076669;28;20495;-81
2022/07/23 06:54:57;;;;;;;5.95;1.38;;;17.00;93.90;;;;;;5058757;28;20037;-82
2022/07/23 06:57:25;;;;;;;4.03;0.90;;;17.00;93.70;;;;;;5041701;28;20044;-82
2022/07/23 06:59:51;;;;;;;2.53;1.20;;;17.10;93.60;;;;;;5058856;28;20495;-82
2022/07/23 07:02:16;;;;;;;5.20;1.17;;;17.10;93.60;;;;;;5041548;28;20032;-82
2022/07/23 07:04:42;;;;;;;2.63;0.98;;;17.10;93.50;;;;;;5076294;28;20082;-83
2022/07/23 07:07:08;;;;;;;2.38;0.90;;;17.10;93.40;;;;;;5058954;28;20032;-83
2022/07/23 07:09:34;;;;;;;3.75;1.40;;;17.20;93.40;;;;;;5041637;28;20040;-83
2022/07/23 07:11:59;;;;;;;3.65;1.08;;;17.20;93.50;;;;;;5058409;28;20392;-83
2022/07/23 07:14:25;;;;;;;5.65;1.38;;;17.30;93.20;;;;;;5076107;28;20040;-83
2022/07/23 07:16:50;;;;;;;4.50;1.00;;;17.30;93.10;;;;;;5075978;28;20045;-84
2022/07/23 07:19:16;;;;;;;5.15;1.00;;;17.30;93.00;;;;;;5075741;28;20476;-82
2022/07/23 07:21:42;;;;;;;2.55;0.85;;;17.30;92.90;;;;;;5075904;28;20064;-82
2022/07/23 07:24:07;;;;;;;2.10;0.90;;;17.40;92.90;;;;;;5058095;28;20032;-82
2022/07/23 07:26:33;;;;;;;5.03;1.00;;;17.40;92.80;;;;;;5057954;28;20082;-83
2022/07/23 07:28:59;;;;;;;1.58;0.70;;;17.50;92.60;;;;;;5057865;28;20035;-82
2022/07/23 07:31:24;;;;;;;3.45;0.88;;;17.50;92.40;;;;;;5058276;28;20116;-82
2022/07/23 07:33:50;;;;;;;5.38;0.93;;;17.60;92.30;;;;;;5075683;28;20086;-82
2022/07/23 07:36:16;;;;;;;3.63;0.80;;;17.60;92.30;;;;;;5075725;28;20024;-83
2022/07/23 07:38:41;;;;;;;2.70;0.85;;;17.70;92.20;;;;;;5075668;28;20032;-83
2022/07/23 07:41:09;;;;;;;3.30;0.90;;;17.70;92.00;;;;;;5075467;28;20028;-83
2022/07/23 07:43:35;;;;;;;3.90;0.90;;;17.80;91.90;;;;;;5058140;28;20024;-83
2022/07/23 07:46:02;;;;;;;5.35;1.02;;;17.80;91.80;;;;;;5075501;28;20046;-82
2022/07/23 07:48:28;;;;;;;2.53;0.60;;;17.90;91.80;;;;;;5075514;28;20029;-82
2022/07/23 07:50:53;;;;;;;2.47;0.80;;;17.90;91.70;;;;;;5057556;28;20044;-82
2022/07/23 07:53:19;;;;;;;3.22;0.88;;;18.00;91.50;;;;;;5075144;28;20029;-83
2022/07/23 07:55:45;;;;;;;1.30;0.75;;;18.00;91.30;;;;;;5074928;28;20052;-83
2022/07/23 07:58:11;;;;;;;3.42;0.80;;;18.10;91.10;;;;;;5074566;28;20024;-83
2022/07/23 08:00:36;;;;;;;4.13;0.80;;;18.20;90.90;;;;;;5066777;28;20047;-83
2022/07/23 08:03:02;;;;;;;2.92;0.95;;;18.20;90.80;;;;;;5077828;28;20020;-82
2022/07/23 08:05:30;;;;;;;3.10;0.77;;;18.20;90.60;;;;;;5081120;28;20106;-82
2022/07/23 08:07:57;;;;;;;1.73;0.85;;;18.30;90.60;;;;;;5075018;28;20059;-82
2022/07/23 08:10:23;;;;;;;2.90;0.80;;;18.30;90.30;;;;;;5075316;28;20028;-82
2022/07/23 08:12:55;;;;;;;5.10;1.17;;;18.40;90.00;;;;;;5075274;28;20029;-82
2022/07/23 08:15:21;;;;;;;4.95;1.25;;;18.40;89.60;;;;;;5067873;28;20032;-83
2022/07/23 08:17:48;;;;;;;3.08;0.80;;;18.50;89.60;;;;;;5073787;28;20039;-82
2022/07/23 08:20:16;;;;;;;1.95;0.82;;;18.50;89.50;;;;;;5056948;28;20452;-82
2022/07/23 08:22:52;;;;;;;3.47;0.80;;;18.50;89.30;;;;;;5062444;28;20024;-80
2022/07/23 08:25:33;;;;;;;1.40;0.70;;;18.60;89.20;;;;;;5053494;28;20029;-78
2022/07/23 08:28:00;;;;;;;5.63;1.10;;;18.60;89.10;;;;;;5060263;28;20405;-80
2022/07/23 08:30:26;;;;;;;3.05;0.98;;;18.70;88.90;;;;;;5054798;28;20036;-80
2022/07/23 08:33:13;;;;;;;4.47;1.08;;;18.70;88.50;;;;;;5047290;28;20021;-82
2022/07/23 08:35:50;;;;;;;5.50;1.20;;;18.80;88.20;;;;;;5055242;28;20123;-81
2022/07/23 08:38:18;;;;;;;1.92;0.80;;;18.80;88.10;;;;;;5074590;28;20056;-82
2022/07/23 08:40:50;;;;;;;3.40;0.95;;;18.80;87.90;;;;;;5057044;28;20024;-82
2022/07/23 08:43:25;;;;;;;3.47;0.80;;;18.90;87.90;;;;;;5056800;28;20075;-81
2022/07/23 08:45:56;;;;;;;4.03;1.20;;;18.90;87.60;;;;;;5056811;28;20017;-81
2022/07/23 08:48:24;;;;;;;2.58;0.70;;;19.00;88.10;;;;;;5074103;28;20161;-81
2022/07/23 08:50:53;;;;;;;4.47;0.98;;;19.10;87.20;;;;;;5057191;28;20412;-82
2022/07/23 08:53:20;;;;;;;3.33;0.60;;;19.10;87.00;;;;;;5074334;28;20019;-81
2022/07/23 08:55:47;;;;;;;2.22;1.05;;;19.20;86.80;;;;;;5056160;28;20495;-81
2022/07/23 08:58:13;;;;;;;4.03;0.90;;;19.30;86.30;;;;;;5074008;28;20024;-82
2022/07/23 09:00:39;;;;;;;2.67;0.80;;;19.30;85.80;;;;;;5074170;28;20439;-81
2022/07/23 09:03:05;;;;;;;3.22;0.95;;;19.30;85.70;;;;;;5074277;28;20048;-80
2022/07/23 09:05:31;;;;;;;3.60;1.08;;;19.40;85.50;;;;;;5056453;28;20032;-82
2022/07/23 09:08:18;;;;;;;2.90;1.20;;;19.40;85.30;;;;;;5074380;28;20029;-82
2022/07/23 09:10:43;;;;;;;2.97;0.82;;;19.50;85.10;;;;;;5072264;28;20062;-82
2022/07/23 09:13:32;;;;;;;3.15;1.05;;;19.60;85.00;;;;;;5073999;28;20048;-83
2022/07/23 09:16:06;;;;;;;2.13;0.68;;;19.60;84.70;;;;;;5074120;28;20039;-83
2022/07/23 09:18:38;;;;;;;4.65;0.70;;;19.70;84.70;;;;;;5073854;28;20032;-83
2022/07/23 09:21:14;;;;;;;1.58;0.70;;;19.80;84.60;;;;;;5074264;28;20050;-81
2022/07/23 09:23:41;;;;;;;2.60;0.57;;;19.90;84.40;;;;;;5055774;28;20393;-83
2022/07/23 09:26:17;;;;;;;2.08;0.63;;;19.90;83.70;;;;;;5073686;28;20025;-82
2022/07/23 09:29:12;;;;;;;3.08;0.85;;;20.00;83.30;;;;;;5055421;28;20123;-83
2022/07/23 09:31:57;;;;;;;2.55;0.70;;;20.10;82.00;;;;;;5073586;28;20023;-83
2022/07/23 09:34:30;;;;;;;2.85;0.95;;;20.20;81.80;;;;;;5073494;28;20537;-83
2022/07/23 09:37:13;;;;;;;1.88;0.60;;;20.30;81.40;;;;;;5073428;28;20024;-83
2022/07/23 09:39:39;;;;;;;2.28;0.60;;;20.40;80.70;;;;;;5072045;28;20028;-82
2022/07/23 09:42:23;;;;;;;3.75;0.70;;;20.40;79.80;;;;;;5073461;28;20029;-83
2022/07/23 09:44:54;;;;;;;2.38;0.80;;;20.60;79.60;;;;;;5035496;28;20382;-82
2022/07/23 09:47:21;;;;;;;3.30;0.80;;;20.60;79.20;;;;;;5053502;28;20021;-82
2022/07/23 09:50:04;;;;;;;2.85;0.70;;;20.70;78.90;;;;;;5053721;28;20067;-82
2022/07/23 09:52:51;;;;;;;2.53;0.90;;;20.80;78.70;;;;;;5064295;28;20052;-83
2022/07/23 09:55:18;;;;;;;1.50;0.50;;;20.90;78.70;;;;;;5052453;28;20106;-83
2022/07/23 09:57:46;;;;;;;6.05;0.93;;;21.00;78.40;;;;;;5029917;28;20046;-82
2022/07/23 10:00:12;;;;;;;1.58;0.50;;;21.20;78.10;;;;;;5032233;28;20116;-83
2022/07/23 10:02:39;;;;;;;3.95;0.90;;;21.30;78.20;;;;;;5041065;28;20029;-83
2022/07/23 10:05:06;;;;;;;2.53;0.68;;;21.40;78.20;;;;;;5068504;28;20061;-83
2022/07/23 10:07:36;;;;;;;1.20;0.50;;;21.50;78.20;;;;;;5053212;28;20521;-83
2022/07/23 10:10:03;;;;;;;1.25;0.50;;;21.60;77.90;;;;;;5053511;28;20381;-83
2022/07/23 10:14:57;;;;;;;2.70;0.50;;;21.90;77.40;;;;;;5053155;28;20029;-81
2022/07/23 10:17:23;;;;;;;1.88;0.60;;;22.00;77.10;;;;;;5053148;28;20029;-82
2022/07/23 10:19:49;;;;;;;2.83;0.80;;;22.00;77.00;;;;;;5068425;28;20052;-83
2022/07/23 10:22:20;;;;;;;2.25;0.52;;;22.20;75.30;;;;;;5053883;28;20477;-85
2022/07/23 10:25:07;;;;;;;1.63;0.50;;;22.20;74.80;;;;;;5057157;28;20080;-84
2022/07/23 10:27:42;;;;;;;2.20;0.80;;;22.20;74.60;;;;;;5056092;28;20666;-86
2022/07/23 10:30:19;;;;;;;1.25;0.60;;;22.20;74.40;;;;;;5055802;28;20021;-85
2022/07/23 10:33:03;;;;;;;1.63;0.52;;;22.20;74.10;;;;;;5057037;28;20040;-84
2022/07/23 10:35:42;;;;;;;1.35;0.60;;;22.30;73.70;;;;;;5055593;28;20025;-85
2022/07/23 10:38:18;;;;;;;2.03;0.60;;;22.40;73.50;;;;;;5055659;28;20495;-84
2022/07/23 10:40:59;;;;;;;1.60;0.52;;;22.50;73.10;;;;;;5056754;28;20029;-84
2022/07/23 10:43:26;;;;;;;2.50;0.70;;;22.60;72.30;;;;;;5057210;28;20419;-84
2022/07/23 10:45:52;;;;;;;2.47;0.63;;;22.70;72.00;;;;;;5057416;28;20036;-85
2022/07/23 10:48:20;;;;;;;2.22;0.80;;;22.90;71.40;;;;;;5056641;28;20382;-85
2022/07/23 10:51:15;;;;;;;1.45;0.35;;;23.00;70.90;;;;;;5056588;28;20017;-84
2022/07/23 10:53:56;;;;;;;0.98;0.50;;;23.20;70.00;;;;;;5072021;28;20070;-85
2022/07/23 10:56:47;;;;;;;2.75;0.60;;;23.40;69.70;;;;;;5062909;28;20048;-85
2022/07/23 10:59:12;;;;;;;3.00;0.60;;;23.70;68.70;;;;;;5058395;28;20426;-85
2022/07/23 11:01:39;;;;;;;1.30;0.60;;;23.90;68.60;;;;;;5076740;28;20030;-84
2022/07/23 11:04:07;;;;;;;3.58;0.70;;;24.00;68.00;;;;;;5042428;28;20067;-83
2022/07/23 11:06:48;;;;;;;1.60;0.50;;;24.20;67.70;;;;;;5076492;28;20033;-84
2022/07/23 11:09:37;;;;;;;2.17;0.60;;;24.30;66.70;;;;;;5054742;28;20500;-85
2022/07/23 11:12:24;;;;;;;1.92;0.55;;;24.50;66.50;;;;;;5056415;28;20420;-85
2022/07/23 11:15:05;;;;;;;2.35;0.50;;;24.60;65.90;;;;;;5064528;28;20511;-84
2022/07/23 11:17:33;;;;;;;2.78;0.50;;;24.80;65.40;;;;;;5056053;28;20108;-85
2022/07/23 11:20:13;;;;;;;2.17;0.50;;;24.90;65.30;;;;;;5045701;28;20029;-85
2022/07/23 11:22:46;;;;;;;1.40;0.70;;;25.10;64.10;;;;;;5075991;28;20090;-84
2022/07/23 11:25:12;;;;;;;3.15;0.52;;;25.30;63.70;;;;;;5071018;28;20052;-84
2022/07/23 11:27:39;;;;;;;3.58;0.70;;;25.50;63.00;;;;;;5074132;28;20019;-84
2022/07/23 11:30:06;;;;;;;1.85;0.80;;;25.70;62.40;;;;;;5075731;28;20029;-85
2022/07/23 11:32:36;;;;;;;2.08;0.60;;;25.90;61.90;;;;;;5076100;28;20035;-85
2022/07/23 11:35:03;;;;;;;2.75;0.50;;;26.10;61.30;;;;;;5073849;28;20066;-85
2022/07/23 11:37:39;;;;;;;7.40;0.80;;;26.30;60.70;;;;;;5057779;28;20074;-85
2022/07/23 11:40:16;;;;;;;2.92;0.55;;;26.60;60.10;;;;;;5075585;28;20042;-85
2022/07/23 11:43:03;;;;;;;2.55;0.63;;;26.90;59.20;;;;;;5075805;28;20552;-86
2022/07/23 11:45:40;;;;;;;1.67;0.55;;;27.10;58.70;;;;;;5070140;28;20037;-85
2022/07/23 11:48:08;;;;;;;2.78;0.85;;;27.30;58.30;;;;;;5056322;28;20102;-83
2022/07/23 11:50:34;;;;;;;2.50;0.50;;;27.50;58.20;;;;;;5054319;28;20032;-83
2022/07/23 11:53:01;;;;;;;1.85;0.65;;;27.60;57.60;;;;;;5088409;28;20123;-84
2022/07/23 11:55:28;;;;;;;1.48;0.60;;;27.80;56.90;;;;;;5054465;28;20055;-84
2022/07/23 11:57:54;;;;;;;3.63;0.60;;;27.80;56.30;;;;;;5055033;28;20431;-84
2022/07/23 12:00:22;;;;;;;1.60;0.40;;;28.00;55.90;;;;;;5055233;28;20442;-84
2022/07/23 12:02:51;;;;;;;1.33;0.52;;;28.30;55.60;;;;;;5055116;28;20381;-84
2022/07/23 12:05:23;;;;;;;2.60;0.70;;;28.50;55.20;;;;;;5055125;28;20037;-84
2022/07/23 12:07:50;;;;;;;1.92;0.70;;;28.60;54.70;;;;;;5055195;28;20083;-85
2022/07/23 12:10:28;;;;;;;1.75;0.57;;;28.80;54.30;;;;;;5087604;28;20037;-84
2022/07/23 12:12:59;;;;;;;1.65;0.70;;;28.90;53.80;;;;;;5055391;28;20434;-85
2022/07/23 12:15:33;;;;;;;0.98;0.55;;;29.10;53.30;;;;;;5055335;28;20029;-86
2022/07/23 12:18:01;;;;;;;1.65;0.70;;;29.30;52.90;;;;;;5055085;28;20040;-86
2022/07/23 12:20:42;;;;;;;1.63;0.65;;;29.60;52.70;;;;;;5055091;28;20036;-85
2022/07/23 12:23:09;;;;;;;1.85;0.70;;;29.80;51.80;;;;;;5051239;28;20021;-85
2022/07/23 12:25:37;;;;;;;1.55;0.80;;;30.00;52.00;;;;;;5050302;28;20159;-85
2022/07/23 12:28:20;;;;;;;1.67;0.60;;;30.30;51.60;;;;;;5052838;28;20520;-85
2022/07/23 12:31:12;;;;;;;1.88;0.73;;;30.40;51.00;;;;;;5058831;28;20461;-86
2022/07/23 12:33:39;;;;;;;1.48;0.57;;;30.50;50.30;;;;;;5064193;28;20036;-86
2022/07/23 12:36:07;;;;;;;1.65;0.70;;;30.70;50.50;;;;;;5070343;28;20028;-86
2022/07/23 12:38:47;;;;;;;3.47;0.60;;;30.90;50.10;;;;;;5074712;28;20417;-86
2022/07/23 12:41:13;;;;;;;2.75;0.70;;;31.20;49.60;;;;;;5075498;28;20024;-85
2022/07/23 12:43:41;;;;;;;1.63;0.70;;;31.40;49.60;;;;;;5074594;28;20504;-85
2022/07/23 12:46:07;;;;;;;2.72;0.80;;;31.50;48.70;;;;;;5073718;28;20032;-84
2022/07/23 12:48:36;;;;;;;2.60;0.73;;;31.70;48.40;;;;;;5057627;28;20103;-86
2022/07/23 12:51:09;;;;;;;1.33;0.60;;;31.90;48.00;;;;;;5056528;28;20027;-86
2022/07/23 12:53:42;;;;;;;1.55;0.55;;;32.10;47.30;;;;;;5074717;28;20017;-85
2022/07/23 12:56:13;;;;;;;2.13;0.50;;;32.20;47.30;;;;;;5074097;28;20055;-86